createdAt,value
2019-05-01T00:02:36.985Z,10.88
2019-05-01T00:07:58.713Z,10.80
2019-05-01T00:13:20.149Z,10.74
2019-05-01T00:18:41.952Z,10.77
2019-05-01T00:24:03.532Z,10.81
2019-05-01T00:29:25.174Z,10.81
2019-05-01T00:34:47.063Z,10.77
2019-05-01T00:40:08.904Z,10.56
2019-05-01T00:45:30.107Z,10.55
2019-05-01T00:50:52.171Z,10.49
2019-05-01T00:56:26.038Z,10.25
2019-05-01T01:02:19.567Z,10.02
2019-05-01T01:07:41.273Z,9.97
2019-05-01T01:13:03.019Z,9.99
2019-05-01T01:18:24.569Z,9.99
2019-05-01T01:23:46.340Z,9.96
2019-05-01T01:29:07.769Z,9.86
2019-05-01T01:34:29.267Z,9.89
2019-05-01T01:39:51.390Z,9.87
2019-05-01T01:45:21.975Z,9.78
2019-05-01T01:50:44.890Z,9.75
2019-05-01T01:56:06.438Z,9.76
2019-05-01T02:01:47.637Z,9.64
2019-05-01T02:07:10.039Z,9.59
2019-05-01T02:12:31.715Z,9.62
2019-05-01T02:17:53.215Z,9.54
2019-05-01T02:23:15.018Z,9.50
2019-05-01T02:29:01.960Z,9.52
2019-05-01T02:34:24.788Z,9.62
2019-05-01T02:39:48.333Z,9.56
2019-05-01T02:45:10.441Z,9.41
2019-05-01T02:50:35.115Z,9.34
2019-05-01T02:56:15.892Z,9.20
2019-05-01T03:01:47.312Z,9.13
2019-05-01T03:07:04.747Z,9.10
2019-05-01T03:12:29.773Z,8.97
2019-05-01T03:18:12.253Z,8.95
2019-05-01T03:23:40.305Z,8.85
2019-05-01T03:29:01.953Z,8.92
2019-05-01T03:34:23.685Z,8.88
2019-05-01T03:39:45.887Z,8.89
2019-05-01T03:45:07.926Z,8.79
2019-05-01T03:50:29.503Z,8.82
2019-05-01T03:55:51.109Z,8.97
2019-05-01T04:01:25.559Z,9.24
2019-05-01T04:06:47.593Z,9.34
2019-05-01T04:12:09.148Z,9.25
2019-05-01T04:17:45.963Z,9.28
2019-05-01T04:23:07.737Z,9.32
2019-05-01T04:28:43.058Z,9.42
2019-05-01T04:34:09.959Z,9.49
2019-05-01T04:39:32.807Z,9.74
2019-05-01T04:44:54.735Z,9.93
2019-05-01T04:50:16.800Z,10.01
2019-05-01T04:55:39.112Z,10.21
2019-05-01T05:01:03.087Z,10.45
2019-05-01T05:06:24.678Z,10.75
2019-05-01T05:11:51.894Z,11.02
2019-05-01T05:17:17.035Z,11.25
2019-05-01T05:22:38.521Z,11.50
2019-05-01T05:28:00.591Z,11.81
2019-05-01T05:33:23.980Z,11.84
2019-05-01T05:38:51.936Z,11.91
2019-05-01T05:44:14.009Z,12.18
2019-05-01T05:49:36.289Z,12.45
2019-05-01T05:55:09.561Z,12.81
2019-05-01T06:00:49.858Z,13.23
2019-05-01T06:06:33.905Z,13.67
2019-05-01T06:12:12.561Z,14.02
2019-05-01T06:18:04.096Z,14.31
2019-05-01T06:23:34.161Z,14.36
2019-05-01T06:29:00.592Z,14.48
2019-05-01T06:34:23.839Z,14.58
2019-05-01T06:39:47.885Z,14.72
2019-05-01T06:45:13.019Z,14.85
2019-05-01T06:50:52.146Z,14.74
2019-05-01T06:56:14.021Z,14.94
2019-05-01T07:01:36.821Z,15.07
2019-05-01T07:07:01.898Z,15.32
2019-05-01T07:12:28.311Z,15.52
2019-05-01T07:17:50.693Z,15.71
2019-05-01T07:23:17.470Z,15.83
2019-05-01T07:28:37.958Z,15.91
2019-05-01T07:33:59.627Z,15.96
2019-05-01T07:39:21.471Z,16.23
2019-05-01T07:44:45.468Z,16.47
2019-05-01T07:50:09.028Z,16.47
2019-05-01T07:55:36.519Z,16.62
2019-05-01T08:01:20.156Z,16.82
2019-05-01T08:06:42.169Z,16.71
2019-05-01T08:12:04.512Z,16.92
2019-05-01T08:17:28.214Z,16.77
2019-05-01T08:22:50.004Z,17.02
2019-05-01T08:28:33.996Z,17.08
2019-05-01T08:34:07.009Z,17.21
2019-05-01T08:39:28.527Z,17.40
2019-05-01T08:45:12.569Z,17.40
2019-05-01T08:50:34.719Z,17.71
2019-05-01T08:55:56.470Z,17.69
2019-05-01T09:01:18.360Z,17.73
2019-05-01T09:06:43.929Z,18.18
2019-05-01T09:12:06.785Z,18.18
2019-05-01T09:17:27.245Z,18.00
2019-05-01T09:22:49.082Z,18.28
2019-05-01T09:28:17.418Z,18.51
2019-05-01T09:33:39.052Z,18.37
2019-05-01T09:39:01.118Z,18.52
2019-05-01T09:44:22.914Z,18.43
2019-05-01T09:49:48.844Z,18.49
2019-05-01T09:55:17.933Z,18.86
2019-05-01T10:00:39.002Z,19.34
2019-05-01T10:06:02.748Z,19.69
2019-05-01T10:11:24.584Z,19.70
2019-05-01T10:16:50.032Z,19.70
2019-05-01T10:22:11.777Z,19.72
2019-05-01T10:27:37.285Z,19.60
2019-05-01T10:33:04.186Z,19.85
2019-05-01T10:38:25.748Z,19.94
2019-05-01T10:43:47.428Z,20.16
2019-05-01T10:49:08.964Z,20.49
2019-05-01T10:54:30.486Z,20.55
2019-05-01T10:59:52.271Z,20.76
2019-05-01T11:05:14.493Z,20.69
2019-05-01T11:10:36.070Z,20.56
2019-05-01T11:15:57.806Z,20.76
2019-05-01T11:21:19.960Z,20.64
2019-05-01T11:26:42.026Z,20.52
2019-05-01T11:32:26.289Z,20.77
2019-05-01T11:38:07.711Z,21.08
2019-05-01T11:43:29.534Z,20.98
2019-05-01T11:48:51.178Z,21.00
2019-05-01T11:54:12.847Z,20.98
2019-05-01T11:59:34.758Z,21.36
2019-05-01T12:04:56.336Z,21.11
2019-05-01T12:10:18.483Z,20.89
2019-05-01T12:15:42.222Z,20.87
2019-05-01T12:21:03.914Z,21.48
2019-05-01T12:26:25.676Z,22.25
2019-05-01T12:31:47.234Z,22.12
2019-05-01T12:37:31.556Z,21.71
2019-05-01T12:42:55.350Z,21.91
2019-05-01T12:48:16.963Z,22.17
2019-05-01T12:54:05.680Z,22.04
2019-05-01T12:59:27.310Z,21.89
2019-05-01T13:04:49.219Z,22.07
2019-05-01T13:10:11.855Z,22.33
2019-05-01T13:15:33.485Z,22.37
2019-05-01T13:20:55.068Z,22.59
2019-05-01T13:26:24.896Z,21.93
2019-05-01T13:31:53.252Z,22.45
2019-05-01T13:37:14.847Z,24.14
2019-05-01T13:42:37.158Z,24.44
2019-05-01T13:47:59.094Z,23.28
2019-05-01T13:53:20.917Z,22.20
2019-05-01T13:58:42.172Z,21.86
2019-05-01T14:04:03.718Z,21.56
2019-05-01T14:09:29.185Z,21.48
2019-05-01T14:14:51.215Z,21.03
2019-05-01T14:20:38.837Z,20.56
2019-05-01T14:26:03.491Z,20.40
2019-05-01T14:31:25.476Z,20.44
2019-05-01T14:36:47.361Z,20.12
2019-05-01T14:42:09.508Z,20.22
2019-05-01T14:47:31.153Z,20.50
2019-05-01T14:52:52.820Z,20.36
2019-05-01T14:58:14.375Z,20.27
2019-05-01T15:03:35.934Z,19.98
2019-05-01T15:08:57.591Z,20.39
2019-05-01T15:14:37.701Z,20.48
2019-05-01T15:20:02.610Z,21.37
2019-05-01T15:25:24.454Z,21.29
2019-05-01T15:30:46.373Z,20.76
2019-05-01T15:36:08.520Z,20.50
2019-05-01T15:41:52.733Z,20.16
2019-05-01T15:47:14.449Z,19.93
2019-05-01T15:52:36.139Z,19.56
2019-05-01T15:57:57.556Z,19.36
2019-05-01T16:03:19.452Z,19.26
2019-05-01T16:08:41.337Z,19.04
2019-05-01T16:14:03.703Z,19.00
2019-05-01T16:19:25.568Z,18.98
2019-05-01T16:24:47.219Z,18.83
2019-05-01T16:30:09.348Z,18.72
2019-05-01T16:35:31.517Z,18.62
2019-05-01T16:41:12.885Z,18.32
2019-05-01T16:46:35.126Z,18.32
2019-05-01T16:51:56.646Z,18.28
2019-05-01T16:57:18.765Z,18.28
2019-05-01T17:03:01.286Z,18.14
2019-05-01T17:08:48.845Z,18.14
2019-05-01T17:14:11.587Z,18.05
2019-05-01T17:19:32.915Z,18.05
2019-05-01T17:24:54.899Z,17.91
2019-05-01T17:30:20.611Z,17.91
2019-05-01T17:35:43.251Z,17.88
2019-05-01T17:41:05.172Z,17.88
2019-05-01T17:46:26.770Z,17.83
2019-05-01T17:51:48.392Z,17.82
2019-05-01T17:57:10.589Z,17.78
2019-05-01T18:02:54.333Z,17.50
2019-05-01T18:08:17.249Z,17.69
2019-05-01T18:13:39.068Z,17.58
2019-05-01T18:19:00.490Z,17.55
2019-05-01T18:24:41.799Z,17.55
2019-05-01T18:30:07.303Z,17.49
2019-05-01T18:35:29.250Z,17.41
2019-05-01T18:40:58.283Z,17.33
2019-05-01T18:46:20.363Z,17.27
2019-05-01T18:51:42.500Z,17.26
2019-05-01T18:57:04.334Z,17.16
2019-05-01T19:02:26.353Z,17.09
2019-05-01T19:07:48.374Z,17.06
2019-05-01T19:13:11.433Z,17.00
2019-05-01T19:18:33.623Z,17.02
2019-05-01T19:24:00.602Z,16.94
2019-05-01T19:29:19.462Z,16.86
2019-05-01T19:34:41.592Z,16.71
2019-05-01T19:40:03.948Z,16.56
2019-05-01T19:45:25.681Z,16.57
2019-05-01T19:50:48.431Z,16.50
2019-05-01T19:56:11.330Z,16.39
2019-05-01T20:01:33.062Z,16.37
2019-05-01T20:06:54.591Z,16.33
2019-05-01T20:12:15.935Z,16.22
2019-05-01T20:17:37.526Z,16.16
2019-05-01T20:22:59.423Z,16.14
2019-05-01T20:28:22.441Z,16.12
2019-05-01T20:33:44.693Z,16.13
2019-05-01T20:39:07.085Z,16.15
2019-05-01T20:44:29.193Z,16.03
2019-05-01T20:49:50.493Z,15.96
2019-05-01T20:55:12.859Z,15.98
2019-05-01T21:00:34.682Z,15.95
2019-05-01T21:06:18.475Z,15.85
2019-05-01T21:11:47.395Z,15.47
2019-05-01T21:17:09.533Z,14.58
2019-05-01T21:22:30.302Z,13.75
2019-05-01T21:27:54.092Z,12.89
2019-05-01T21:33:16.120Z,12.71
2019-05-01T21:38:37.532Z,12.67
2019-05-01T21:43:59.282Z,12.42
2019-05-01T21:49:22.832Z,12.37
2019-05-01T21:54:44.594Z,12.83
2019-05-01T22:00:08.016Z,13.60
2019-05-01T22:05:29.759Z,13.85
2019-05-01T22:10:52.382Z,13.93
2019-05-01T22:16:22.382Z,14.04
2019-05-01T22:22:11.717Z,14.00
2019-05-01T22:27:37.596Z,13.89
2019-05-01T22:32:59.565Z,13.84
2019-05-01T22:38:21.349Z,13.86
2019-05-01T22:43:43.192Z,13.92
2019-05-01T22:49:05.306Z,13.95
2019-05-01T22:54:26.994Z,13.94
2019-05-01T22:59:48.879Z,13.84
2019-05-01T23:05:10.743Z,13.81
2019-05-01T23:10:33.327Z,13.78
2019-05-01T23:15:57.977Z,13.71
2019-05-01T23:21:19.642Z,13.68
2019-05-01T23:26:41.367Z,13.60
2019-05-01T23:32:03.329Z,13.38
2019-05-01T23:37:26.105Z,13.29
2019-05-01T23:42:52.603Z,13.02
2019-05-01T23:48:12.344Z,12.70
2019-05-01T23:53:33.980Z,12.58
2019-05-01T23:58:55.388Z,12.49
